• Join FlightAware (Why Join?)
  • Login
  • US Flag 
11:44PM EST


 

Airport Tracker/Info


-or-


 

Live Flight TrackerFlight Track Log ✈ THY9 ✈ 25-Apr-2013 ✈ LTBA / IST - KLAX

Flight Track Log - Related Links

Times and Time Zones

All times are in EDT time to prevent confusion due to time zone crossing. See the THY9 flight status page for this flight to view local times or setup timezone preferences in your user account.

Time Position Orientation Groundspeed Altitude Reporting Facility
EDT Latitude Longitude Course Direction KTS MPH feet Rate Location/Type
06:10AM 41.0810 28.8030 344° North 235 270 3,000  Level FlightAware
06:11AM 41.1000 28.7890 331° Northwest 251 289 3,500 1,860 Climbing FlightAware
06:11AM 41.1400 28.7550 327° Northwest 271 312 4,900 2,160 Climbing FlightAware
06:12AM 41.1640 28.7340 327° Northwest 274 315 5,900 2,100 Climbing FlightAware
06:12AM 41.2100 28.6950 327° Northwest 282 325 7,200 1,320 Climbing FlightAware
06:13AM 41.2480 28.6640 328° Northwest 274 315 7,600 900 Climbing FlightAware
06:14AM 41.2870 28.6310 328° Northwest 284 327 8,300 1,620 Climbing FlightAware
06:14AM 41.3080 28.6140 329° Northwest 284 327 9,100 2,100 Climbing FlightAware
06:15AM 41.3570 28.5720 327° Northwest 309 356 10,400 1,500 Climbing FlightAware
06:15AM 41.3940 28.5270 318° Northwest 341 392 11,000 1,380 Climbing FlightAware
06:16AM 41.4450 28.4300 305° West 374 430 12,500 1,980 Climbing FlightAware
06:17AM 41.4900 28.3420 304° West 378 435 14,300 2,400 Climbing FlightAware
06:18AM 41.5330 28.2610 305° West 391 450 15,900 2,220 Climbing FlightAware
06:18AM 41.5810 28.1680 305° West 400 460 17,500 1,920 Climbing FlightAware
06:19AM 41.6230 28.0870 305° West 405 466 18,700 1,800 Climbing FlightAware
06:20AM 41.6670 28.0010 304° West 414 476 19,900 1,800 Climbing FlightAware
06:20AM 41.7180 27.9010 304° West 425 489 21,300 1,740 Climbing FlightAware
06:21AM 41.7620 27.8160 305° West 432 497 22,400 1,500 Climbing FlightAware
06:22AM 41.8240 27.6950 305° West 439 505 23,700 1,500 Climbing FlightAware
06:23AM 41.8730 27.5980 304° West 444 511 24,800 1,440 Climbing FlightAware
06:23AM 41.9210 27.5040 304° West 454 522 25,800 1,320 Climbing FlightAware
06:24AM 41.9770 27.3920 304° West 459 528 26,800 1,380 Climbing FlightAware
06:25AM 42.0270 27.2920 304° West 462 532 27,800 1,260 Climbing FlightAware
06:25AM 42.0700 27.2140 307° West 467 537 28,400 1,020 Climbing FlightAware
06:26AM 42.1400 27.1110 313° West 473 544 29,300 1,020 Climbing FlightAware
06:27AM 42.1890 27.0430 314° West 474 545 29,900 480 Climbing FlightAware
06:28AM 42.2700 26.9310 314° West 468 539 30,000 60 Climbing FlightAware
06:28AM 42.3320 26.8440 314° West 466 536 30,000  Level FlightAware
06:29AM 42.3970 26.7520 314° West 466 536 30,000  Level FlightAware
06:30AM 42.4660 26.6550 314° West 467 537 30,000  Level FlightAware
06:30AM 42.5250 26.5700 313° West 466 536 30,000  Level FlightAware
06:31AM 42.5910 26.4770 314° West 466 536 30,000  Level FlightAware
06:32AM 42.6440 26.4020 314° West 466 536 30,000  Level FlightAware
06:33AM 42.7180 26.2950 313° West 466 536 30,000  Level FlightAware
06:33AM 42.7700 26.2200 313° West 465 535 30,000  Level FlightAware
06:34AM 42.8570 26.0950 314° West 466 536 30,000  Level FlightAware
06:35AM 42.9160 26.0090 313° West 464 534 30,000  Level FlightAware
06:35AM 42.9760 25.9220 313° West 463 533 30,000  Level FlightAware
06:36AM 43.0370 25.8330 313° West 464 534 30,000  Level FlightAware
06:37AM 43.1230 25.7080 313° West 467 537 30,000  Level FlightAware
06:38AM 43.1780 25.6270 313° West 468 539 30,000  Level FlightAware
06:39AM 43.2360 25.5420 313° West 469 540 30,000  Level FlightAware
06:39AM 43.2930 25.4580 313° West 472 543 30,000  Level FlightAware
06:40AM 43.3660 25.3510 313° West 476 548 30,000  Level FlightAware
06:41AM 43.4470 25.2290 312° West 478 550 30,000  Level FlightAware
06:42AM 43.5150 25.1270 313° West 477 549 30,000  Level FlightAware
06:42AM 43.5750 25.0390 313° West 475 547 30,000  Level FlightAware
06:43AM 43.6460 24.9320 313° West 475 547 30,000  Level FlightAware
06:44AM 43.7060 24.8530 316° Northwest 471 542 30,000  Level FlightAware
06:44AM 43.7790 24.7950 330° Northwest 467 537 30,000  Level FlightAware
06:45AM 43.8730 24.7300 334° Northwest 467 537 30,000  Level FlightAware
06:46AM 43.9420 24.6820 333° Northwest 467 537 30,000  Level FlightAware
06:47AM 44.0400 24.6140 333° Northwest 466 536 30,000  Level FlightAware
06:47AM 44.0920 24.5780 334° Northwest 466 536 30,000  Level FlightAware
06:48AM 44.1810 24.5010 328° Northwest 465 535 30,000  Level FlightAware
06:49AM 44.2590 24.4140 321° Northwest 466 536 30,000  Level FlightAware
06:49AM 44.3310 24.3310 321° Northwest 467 537 30,000  Level FlightAware
06:50AM 44.4060 24.2470 321° Northwest 467 537 30,000  Level FlightAware
06:51AM 44.4700 24.1750 321° Northwest 467 537 30,000  Level FlightAware
06:51AM 44.5350 24.1000 321° Northwest 466 536 30,000  Level FlightAware
06:52AM 44.6060 24.0180 321° Northwest 466 536 30,000  Level FlightAware
06:53AM 44.6600 23.9560 321° Northwest 467 537 30,000  Level FlightAware
06:53AM 44.7390 23.8650 321° Northwest 467 537 30,000  Level FlightAware
06:54AM 44.8090 23.7840 321° Northwest 466 536 30,000  Level FlightAware
06:55AM 44.8850 23.6950 320° Northwest 468 539 30,000  Level FlightAware
06:56AM 44.9560 23.6120 320° Northwest 468 539 30,000  Level FlightAware
06:56AM 45.0270 23.5280 320° Northwest 466 536 30,000  Level FlightAware
06:57AM 45.1140 23.4270 321° Northwest 464 534 30,000  Level FlightAware
06:58AM 45.1740 23.3550 320° Northwest 464 534 30,000  Level FlightAware
06:59AM 45.2510 23.2640 320° Northwest 466 536 30,000  Level FlightAware
06:59AM 45.3210 23.1810 320° Northwest 466 536 30,000  Level FlightAware
07:00AM 45.3870 23.1030 320° Northwest 466 536 30,000  Level FlightAware
07:01AM 45.4530 23.0240 320° Northwest 466 536 30,000  Level FlightAware
07:01AM 45.5090 22.9570 320° Northwest 466 536 30,000  Level FlightAware
07:02AM 45.5650 22.8890 320° Northwest 466 536 30,000  Level FlightAware
07:03AM 45.6620 22.7710 320° Northwest 462 532 30,000  Level FlightAware
07:04AM 45.7520 22.6610 320° Northwest 462 532 30,000  Level FlightAware
07:04AM 45.8070 22.5950 320° Northwest 460 529 30,000  Level FlightAware
07:05AM 45.8730 22.5120 319° Northwest 460 529 30,000  Level FlightAware
07:07AM 46.0300 22.3210 320° Northwest 460 529 30,000  Level FlightAware
07:07AM 46.0980 22.2370 319° Northwest 457 526 30,000  Level FlightAware
07:08AM 46.1690 22.1490 319° Northwest 457 526 30,000  Level FlightAware
07:09AM 46.2330 22.0690 319° Northwest 455 524 30,000  Level FlightAware
07:09AM 46.2940 21.9930 319° Northwest 447 514 30,000  Level FlightAware
07:10AM 46.3660 21.9030 319° Northwest 453 521 30,000  Level FlightAware
07:11AM 46.4310 21.8220 319° Northwest 449 517 30,000  Level FlightAware
07:11AM 46.4990 21.7350 319° Northwest 449 517 30,000  Level FlightAware
07:12AM 46.5800 21.6340 319° Northwest 455 524 30,000  Level FlightAware
07:13AM 46.6480 21.5470 319° Northwest 454 522 30,000  Level FlightAware
07:14AM 46.7190 21.4500 317° Northwest 454 522 30,000  Level FlightAware
07:14AM 46.7800 21.3620 315° West 454 522 30,000  Level FlightAware
07:15AM 46.8430 21.2680 314° West 453 521 30,000  Level FlightAware
07:16AM 46.9270 21.1450 315° West 446 513 30,000  Level FlightAware
07:17AM 46.9860 21.0570 315° West 447 514 30,000  Level FlightAware
07:18AM 47.0520 20.9600 315° West 454 522 30,000  Level FlightAware
07:18AM 47.1030 20.8830 314° West 447 514 30,000  Level FlightAware
07:19AM 47.1690 20.7840 314° West 447 514 30,000  Level FlightAware
07:20AM 47.2350 20.6850 314° West 446 513 30,000  Level FlightAware
07:20AM 47.2960 20.5950 315° West 448 516 30,000  Level FlightAware
07:21AM 47.3600 20.4980 314° West 448 516 30,000  Level FlightAware
07:22AM 47.4200 20.4060 314° West 448 516 30,000  Level FlightAware
07:22AM 47.4770 20.3190 314° West 448 516 30,000  Level FlightAware
07:23AM 47.5420 20.2200 314° West 447 514 30,000  Level FlightAware
07:24AM 47.6000 20.1310 314° West 448 516 30,000  Level FlightAware
07:25AM 47.6670 20.0290 314° West 447 514 30,000  Level FlightAware
07:25AM 47.7250 19.9390 314° West 444 511 30,000  Level FlightAware
07:26AM 47.7890 19.8390 314° West 448 516 30,000  Level FlightAware
07:27AM 47.8460 19.7520 314° West 449 517 30,000  Level FlightAware
07:27AM 47.9040 19.6610 314° West 449 517 30,000  Level FlightAware
07:28AM 47.9650 19.5650 314° West 449 517 30,000  Level FlightAware
07:29AM 48.0260 19.4700 314° West 449 517 30,000  Level FlightAware
07:29AM 48.0820 19.3860 315° West 450 518 30,000  Level FlightAware
07:30AM 48.1630 19.3090 328° Northwest 447 514 30,000  Level FlightAware
07:31AM 48.2400 19.2570 336° Northwest 455 524 30,000  Level FlightAware
07:32AM 48.3260 19.2010 337° Northwest 453 521 30,000  Level FlightAware
07:32AM 48.4040 19.1490 336° Northwest 454 522 30,000  Level FlightAware
07:33AM 48.4800 19.0990 336° Northwest 446 513 30,000  Level FlightAware
07:34AM 48.5660 19.0380 335° Northwest 447 514 30,000  Level FlightAware
07:34AM 48.6390 18.9870 335° Northwest 457 526 30,000  Level FlightAware
07:35AM 48.7290 18.9230 335° Northwest 449 517 30,000  Level FlightAware
07:36AM 48.8070 18.8680 335° Northwest 450 518 30,000  Level FlightAware
07:36AM 48.8820 18.8150 335° Northwest 447 514 30,000  Level FlightAware
07:37AM 48.9680 18.7540 335° Northwest 448 516 30,000  Level FlightAware
07:38AM 49.0440 18.7000 335° Northwest 449 517 30,000  Level FlightAware
07:39AM 49.1310 18.6370 335° Northwest 449 517 30,000  Level FlightAware
07:39AM 49.2050 18.5840 335° Northwest 448 516 30,000  Level FlightAware
07:40AM 49.2810 18.5290 335° Northwest 445 512 30,000  Level FlightAware
07:41AM 49.3680 18.4660 335° Northwest 444 511 30,000  Level FlightAware
07:41AM 49.4430 18.4120 335° Northwest 444 511 30,000  Level FlightAware
07:42AM 49.5290 18.3490 335° Northwest 451 519 30,000  Level FlightAware
07:43AM 49.6030 18.2950 335° Northwest 452 520 30,000  Level FlightAware
07:43AM 49.6790 18.2390 335° Northwest 450 518 30,000  Level FlightAware
07:44AM 49.7660 18.1750 335° Northwest 449 517 30,000  Level FlightAware
07:45AM 49.8370 18.1220 334° Northwest 445 512 30,000  Level FlightAware
07:45AM 49.9110 18.0680 335° Northwest 443 510 30,000  Level FlightAware
07:46AM 49.9980 18.0140 338° Northwest 444 511 30,000  Level FlightAware
07:47AM 50.0760 17.9690 340° North 443 510 30,000  Level FlightAware
07:48AM 50.1600 17.9200 340° North 440 506 30,000  Level FlightAware
07:48AM 50.2360 17.8770 340° North 440 506 30,000  Level FlightAware
07:49AM 50.3130 17.8320 340° North 440 506 30,000  Level FlightAware
07:50AM 50.3990 17.7820 340° North 439 505 30,000  Level FlightAware
07:50AM 50.4760 17.7380 340° North 439 505 30,000  Level FlightAware
07:51AM 50.5590 17.6890 339° North 437 503 30,000  Level FlightAware
07:52AM 50.6330 17.6460 340° North 436 502 30,000  Level FlightAware
07:53AM 50.7170 17.5970 340° North 436 502 30,000  Level FlightAware
07:53AM 50.7800 17.5600 340° North 435 501 30,000  Level FlightAware
07:54AM 50.8680 17.5080 340° North 435 501 30,000  Level FlightAware
07:55AM 50.9450 17.4620 339° North 435 501 30,000  Level FlightAware
07:55AM 51.0390 17.4060 339° North 439 505 30,000  Level FlightAware
07:56AM 51.1160 17.3600 339° North 440 506 30,000  Level FlightAware
07:57AM 51.1930 17.3140 339° North 440 506 30,000  Level FlightAware
07:57AM 51.2820 17.2610 340° North 439 505 30,000  Level FlightAware
07:58AM 51.3580 17.2140 339° North 439 505 30,000  Level FlightAware
07:59AM 51.4420 17.1640 340° North 439 505 30,000  Level FlightAware
08:00AM 51.5180 17.1180 339° North 438 504 30,000  Level FlightAware
08:00AM 51.5930 17.0720 339° North 437 503 30,000  Level FlightAware
08:01AM 51.6800 17.0180 339° North 436 502 30,000  Level FlightAware
08:02AM 51.7470 16.9770 339° North 436 502 30,000  Level FlightAware
08:02AM 51.8420 16.9190 339° North 437 503 30,000  Level FlightAware
08:03AM 51.9170 16.8720 339° North 438 504 30,000  Level FlightAware
08:04AM 51.9920 16.8250 339° North 438 504 30,000  Level FlightAware
08:04AM 52.0760 16.7730 339° North 440 506 30,000  Level FlightAware
08:05AM 52.1500 16.7260 339° North 440 506 30,000  Level FlightAware
08:06AM 52.2210 16.6820 339° North 440 506 30,000  Level FlightAware
08:07AM 52.3150 16.6220 339° North 438 504 30,000  Level FlightAware
08:07AM 52.3900 16.5740 339° North 439 505 30,000  Level FlightAware
08:08AM 52.4550 16.5330 339° North 438 504 30,000  Level FlightAware
08:09AM 52.5490 16.4730 339° North 438 504 30,000  Level FlightAware
08:09AM 52.6220 16.4260 339° North 439 505 30,000  Level FlightAware
08:10AM 52.6970 16.3780 339° North 440 506 30,000  Level FlightAware
08:11AM 52.7840 16.3220 339° North 440 506 30,000  Level FlightAware
08:11AM 52.8580 16.2740 339° North 439 505 30,000  Level FlightAware
08:12AM 52.9460 16.2160 338° Northwest 437 503 30,000  Level FlightAware
08:13AM 53.0210 16.1670 339° North 437 503 30,000  Level FlightAware
08:13AM 53.0970 16.1180 339° North 435 501 30,000  Level FlightAware
08:14AM 53.1790 16.0630 338° Northwest 434 499 30,000  Level FlightAware
08:15AM 53.2530 16.0140 338° Northwest 433 498 30,000  Level FlightAware
08:16AM 53.3390 15.9570 338° Northwest 432 497 30,000  Level FlightAware
08:16AM 53.4130 15.9080 338° Northwest 431 496 30,000  Level FlightAware
08:17AM 53.4870 15.8580 338° Northwest 431 496 30,000  Level FlightAware
08:18AM 53.5680 15.8030 338° Northwest 432 497 30,000  Level FlightAware
08:18AM 53.6410 15.7540 338° Northwest 430 495 30,000  Level FlightAware
08:19AM 53.7150 15.7040 338° Northwest 430 495 30,000  Level FlightAware
08:20AM 53.7980 15.6470 338° Northwest 431 496 30,000  Level FlightAware
08:20AM 53.8730 15.5960 338° Northwest 430 495 30,000  Level FlightAware
08:21AM 53.9550 15.5400 338° Northwest 429 494 30,000  Level FlightAware
08:22AM 54.0290 15.4890 338° Northwest 428 493 30,000  Level FlightAware
08:23AM 54.1120 15.4310 338° Northwest 428 493 30,000  Level FlightAware
08:23AM 54.1860 15.3800 338° Northwest 429 494 30,000  Level FlightAware
08:24AM 54.2570 15.3310 338° Northwest 427 491 30,000  Level FlightAware
08:25AM 54.3350 15.2620 333° Northwest 418 481 30,000  Level FlightAware
08:25AM 54.3950 15.1810 322° Northwest 415 478 30,000  Level FlightAware
08:26AM 54.4600 15.0820 318° Northwest 415 478 30,000  Level FlightAware
08:27AM 54.5160 14.9990 319° Northwest 414 476 30,000  Level FlightAware
08:28AM 54.5780 14.9060 319° Northwest 408 470 30,000  Level FlightAware
08:28AM 54.6370 14.8180 319° Northwest 409 471 30,000  Level FlightAware
08:29AM 54.6940 14.7330 319° Northwest 409 471 30,000  Level FlightAware
08:30AM 54.7610 14.6300 318° Northwest 414 476 30,000  Level FlightAware
08:30AM 54.8260 14.5310 319° Northwest 415 478 30,000  Level FlightAware
08:31AM 54.8840 14.4420 319° Northwest 413 475 30,000  Level FlightAware
08:32AM 54.9410 14.3550 319° Northwest 413 475 30,000  Level FlightAware
08:32AM 55.0080 14.2500 318° Northwest 413 475 30,000  Level FlightAware
08:33AM 55.0620 14.1670 319° Northwest 412 474 30,000  Level FlightAware
08:34AM 55.1210 14.0740 318° Northwest 413 475 30,000  Level FlightAware
08:35AM 55.1830 13.9770 318° Northwest 414 476 30,000  Level FlightAware
08:35AM 55.2380 13.8910 318° Northwest 413 475 30,000  Level FlightAware
08:36AM 55.2970 13.7970 318° Northwest 413 475 30,000  Level FlightAware
08:37AM 55.3630 13.6940 318° Northwest 413 475 30,000  Level FlightAware
08:37AM 55.4190 13.6040 318° Northwest 413 475 30,000  Level FlightAware
08:38AM 55.4800 13.5060 318° Northwest 413 475 30,000  Level FlightAware
08:39AM 55.5370 13.4190 319° Northwest 418 481 30,000  Level FlightAware
08:39AM 55.6070 13.3320 325° Northwest 419 482 30,000  Level FlightAware
08:40AM 55.6700 13.2520 324° Northwest 418 481 30,000  Level FlightAware
08:41AM 55.7330 13.1690 323° Northwest 418 481 30,000  Level FlightAware
08:41AM 55.7940 13.0870 323° Northwest 417 480 30,000  Level FlightAware
08:42AM 55.8560 13.0040 323° Northwest 417 480 30,000  Level FlightAware
08:43AM 55.9310 12.9040 323° Northwest 418 481 30,000  Level FlightAware
08:44AM 55.9940 12.8190 323° Northwest 417 480 30,000  Level FlightAware
08:44AM 56.0520 12.7420 323° Northwest 417 480 30,000  Level FlightAware
08:45AM 56.1270 12.6410 323° Northwest 417 480 30,000  Level FlightAware
08:46AM 56.1890 12.5570 323° Northwest 417 480 30,000  Level FlightAware
08:46AM 56.2470 12.4780 323° Northwest 417 480 30,000  Level FlightAware
08:47AM 56.3200 12.3780 323° Northwest 417 480 30,000  Level FlightAware
08:48AM 56.3880 12.2860 323° Northwest 417 480 30,000  Level FlightAware
08:49AM 56.4490 12.2020 323° Northwest 417 480 30,000  Level FlightAware
08:49AM 56.5080 12.1220 323° Northwest 416 479 30,000  Level FlightAware
08:50AM 56.5770 12.0260 323° Northwest 417 480 30,000  Level FlightAware
08:51AM 56.6400 11.9400 323° Northwest 418 481 30,000  Level FlightAware
08:51AM 56.6980 11.8590 323° Northwest 418 481 30,000 660 Level FlightAware
08:52AM 56.7740 11.7530 323° Northwest 417 480 31,000 1,320 Climbing FlightAware
08:53AM 56.8310 11.6730 322° Northwest 414 476 31,900 660 Climbing FlightAware
08:53AM 56.9020 11.5740 323° Northwest 410 472 32,000 60 Climbing FlightAware
08:54AM 56.9620 11.4890 322° Northwest 410 472 32,000  Level FlightAware
08:55AM 57.0280 11.3950 322° Northwest 412 474 32,000  Level FlightAware
08:56AM 57.0890 11.3090 323° Northwest 411 473 32,000  Level FlightAware
08:56AM 57.1490 11.2230 322° Northwest 411 473 32,000  Level FlightAware
08:57AM 57.2170 11.1240 322° Northwest 411 473 32,000  Level FlightAware
08:58AM 57.2770 11.0370 322° Northwest 411 473 32,000  Level FlightAware
08:58AM 57.3440 10.9410 322° Northwest 412 474 32,000  Level FlightAware
08:59AM 57.4040 10.8530 322° Northwest 412 474 32,000  Level FlightAware
09:00AM 57.4630 10.7660 322° Northwest 412 474 32,000  Level FlightAware
09:00AM 57.5320 10.6660 322° Northwest 412 474 32,000  Level FlightAware
09:01AM 57.5900 10.5790 321° Northwest 411 473 32,000  Level FlightAware
09:02AM 57.6560 10.4810 322° Northwest 410 472 32,000  Level FlightAware
09:03AM 57.7140 10.3940 321° Northwest 410 472 32,000  Level FlightAware
09:03AM 57.7750 10.3030 322° Northwest 411 473 32,000  Level FlightAware
09:04AM 57.8400 10.2060 322° Northwest 411 473 32,000  Level FlightAware
09:05AM 57.9010 10.1140 321° Northwest 412 474 32,000  Level FlightAware
09:05AM 57.9600 10.0240 321° Northwest 411 473 32,000  Level FlightAware
09:06AM 58.0250 9.9250 321° Northwest 410 472 32,000  Level FlightAware
09:07AM 58.0830 9.8350 321° Northwest 410 472 32,000  Level FlightAware
09:07AM 58.1510 9.7300 321° Northwest 411 473 32,000  Level FlightAware
09:08AM 58.2110 9.6390 321° Northwest 413 475 32,000  Level FlightAware
09:09AM 58.2690 9.5480 320° Northwest 413 475 32,000  Level FlightAware
09:10AM 58.3340 9.4460 321° Northwest 412 474 32,000  Level FlightAware
09:10AM 58.3930 9.3540 321° Northwest 412 474 32,000  Level FlightAware
09:11AM 58.4600 9.2480 320° Northwest 411 473 32,000  Level FlightAware
09:11AM 58.5000 9.1860 321° Northwest 411 473 32,000  Level FlightAware
09:12AM 58.5820 9.0550 320° Northwest 411 473 32,000  Level FlightAware
09:13AM 58.6410 8.9610 320° Northwest 411 473 32,000  Level FlightAware
09:14AM 58.6970 8.8700 320° Northwest 412 474 32,000  Level FlightAware
09:14AM 58.7640 8.7620 320° Northwest 411 473 32,000  Level FlightAware
09:15AM 58.8200 8.6720 320° Northwest 412 474 32,000  Level FlightAware
09:16AM 58.8870 8.5630 320° Northwest 413 475 32,000  Level FlightAware
09:17AM 58.9230 8.5030 319° Northwest 415 478 32,000  Level FlightAware
09:17AM 59.0040 8.3710 320° Northwest 415 478 32,000  Level FlightAware
09:18AM 59.0690 8.2630 320° Northwest 416 479 32,000  Level FlightAware
09:19AM 59.1270 8.1660 319° Northwest 414 476 32,000  Level FlightAware
09:19AM 59.1920 8.0580 320° Northwest 412 474 32,000  Level FlightAware
09:20AM 59.2500 7.9610 319° Northwest 410 472 32,000  Level FlightAware
09:21AM 59.3070 7.8660 320° Northwest 409 471 32,000  Level FlightAware
09:21AM 59.3640 7.7680 319° Northwest 408 470 32,000  Level FlightAware
09:22AM 59.4280 7.6600 319° Northwest 409 471 32,000  Level FlightAware
09:23AM 59.4840 7.5630 319° Northwest 410 472 32,000  Level FlightAware
09:24AM 59.5550 7.4630 324° Northwest 427 491 32,000  Level FlightAware
09:24AM 59.6230 7.3850 330° Northwest 429 494 32,000  Level FlightAware
09:25AM 59.6910 7.3090 331° Northwest 429 494 32,000  Level FlightAware
09:26AM 59.7700 7.2200 330° Northwest 429 494 32,000  Level FlightAware
09:26AM 59.8380 7.1430 330° Northwest 428 493 32,000  Level FlightAware
09:27AM 59.9060 7.0640 330° Northwest 427 491 32,000  Level FlightAware
09:28AM 59.9820 6.9760 330° Northwest 425 489 32,000  Level FlightAware
09:28AM 60.0500 6.8980 330° Northwest 426 490 32,000  Level FlightAware
09:29AM 60.1300 6.8150 333° Northwest 435 501 32,000  Level FlightAware
09:30AM 60.2030 6.7470 335° Northwest 437 503 32,000  Level FlightAware
09:30AM 60.2770 6.6810 336° Northwest 436 502 32,000  Level FlightAware
09:31AM 60.3590 6.6050 335° Northwest 434 499 32,000  Level FlightAware
09:32AM 60.4320 6.5370 335° Northwest 435 501 32,000  Level FlightAware
09:33AM 60.5130 6.4600 335° Northwest 437 503 32,000  Level FlightAware
09:33AM 60.5860 6.3910 335° Northwest 439 505 32,000  Level FlightAware
09:36AM 60.7840 5.9873 315° West  Level Estimated
09:37AM 60.8729 5.8036 315° West  Level Estimated
09:37AM 61.0130 5.9790 315° West 449 517 32,000  Level FlightAware
09:38AM 61.1530 5.8410 335° Northwest 445 512 32,000  Level FlightAware
09:40AM 61.3360 5.6600 335° Northwest 448 516 32,000  Level FlightAware
09:41AM 61.4240 5.5710 334° Northwest 450 518 32,000  Level FlightAware
09:41AM 61.4980 5.4960 334° Northwest 452 520 32,000  Level FlightAware
09:42AM 61.5860 5.4070 334° Northwest 452 520 32,000  Level FlightAware
09:43AM 61.6550 5.3370 334° Northwest 452 520 32,000  Level FlightAware
09:44AM 61.7390 5.2490 334° Northwest 454 522 32,000  Level FlightAware
09:44AM 61.7970 5.1890 334° Northwest 462 532 32,000  Level FlightAware
09:45AM 61.8830 5.0990 334° Northwest 464 534 32,000  Level FlightAware
09:45AM 61.9610 5.0170 334° Northwest 465 535 32,000  Level FlightAware
09:46AM 62.0370 4.9380 334° Northwest 466 536 32,000  Level FlightAware
09:47AM 62.1250 4.8440 333° Northwest 470 541 32,000  Level FlightAware
09:48AM 62.2020 4.7610 333° Northwest 466 536 32,000  Level FlightAware
09:48AM 62.2820 4.6750 333° Northwest 468 539 32,000  Level FlightAware
09:49AM 62.3710 4.5790 333° Northwest 467 537 32,000  Level FlightAware
09:50AM 62.4590 4.4830 333° Northwest 466 536 32,000  Level FlightAware
09:50AM 62.5370 4.3970 333° Northwest 467 537 32,000  Level FlightAware
09:52AM 62.7080 4.2060 333° Northwest 467 537 32,000  Level FlightAware
09:53AM 62.8310 4.0700 333° Northwest 475 547 32,000  Level FlightAware
09:54AM 62.8900 4.0010 332° Northwest 475 547 32,000  Level FlightAware
09:54AM 63.0000 3.8790 333° Northwest 474 545 32,000  Level FlightAware
09:55AM 63.0860 3.7790 332° Northwest 474 545 32,000  Level FlightAware
09:56AM 63.2060 3.6410 333° Northwest 475 547 32,000  Level FlightAware
09:57AM 63.2720 3.5630 332° Northwest 475 547 32,000  Level FlightAware
09:58AM 63.3380 3.4850 332° Northwest 475 547 32,000  Level FlightAware
09:58AM 63.4040 3.4060 332° Northwest 475 547 32,000  Level FlightAware
09:59AM 63.4870 3.3080 332° Northwest 475 547 32,000  Level FlightAware
10:00AM 63.5530 3.2300 332° Northwest 475 547 32,000  Level FlightAware
10:00AM 63.6190 3.1510 332° Northwest 475 547 32,000  Level FlightAware
10:01AM 63.6850 3.0720 332° Northwest 475 547 32,000  Level FlightAware
10:02AM 63.7510 2.9920 332° Northwest 475 547 32,000  Level FlightAware
10:03AM 63.8330 2.8930 332° Northwest 475 547 32,000  Level FlightAware
10:03AM 63.8990 2.8130 332° Northwest 475 547 32,000  Level FlightAware
10:04AM 63.9650 2.7340 332° Northwest 475 547 32,000  Level FlightAware
10:05AM 64.0310 2.6540 332° Northwest 475 547 32,000  Level FlightAware
10:05AM 64.0970 2.5730 332° Northwest 475 547 32,000  Level FlightAware
10:07AM 64.4690 2.1020 331° Northwest 477 549 32,000  Level FlightAware
10:08AM 64.5500 1.9980 331° Northwest 477 549 32,000  Level FlightAware
10:09AM 64.6150 1.9140 331° Northwest 477 549 32,000  Level FlightAware
10:09AM 64.6810 1.8290 331° Northwest 477 549 32,000  Level FlightAware
10:10AM 64.7470 1.7430 331° Northwest 477 549 32,000  Level FlightAware
10:11AM 64.8290 1.6370 331° Northwest 477 549 32,000  Level FlightAware
10:11AM 64.8940 1.5510 331° Northwest 477 549 32,000  Level FlightAware
10:12AM 64.9600 1.4650 331° Northwest 477 549 32,000  Level FlightAware
10:13AM 65.0260 1.3790 331° Northwest 477 549 32,000  Level FlightAware
10:13AM 65.0910 1.2930 331° Northwest 477 549 32,000  Level FlightAware
10:14AM 65.1570 1.2060 331° Northwest 477 549 32,000  Level FlightAware
10:15AM 65.2390 1.0980 331° Northwest 477 549 32,000  Level FlightAware
10:16AM 65.3040 1.0110 331° Northwest 477 549 32,000  Level FlightAware
10:16AM 65.3700 0.9240 331° Northwest 477 549 32,000  Level FlightAware
10:17AM 65.4360 0.8360 331° Northwest 477 549 32,000  Level FlightAware
10:20AM 65.6470 0.2158 310° West  Level Estimated
10:21AM 65.7264 -0.0224 309° West  Level Estimated
10:22AM 65.8055 -0.2620 309° West  Level Estimated
10:23AM 65.8842 -0.5031 309° West  Level Estimated
10:24AM 65.9625 -0.7456 308° West  Level Estimated
10:25AM 66.0404 -0.9897 308° West  Level Estimated
10:26AM 66.1180 -1.2352 308° West  Level Estimated
10:27AM 66.1951 -1.4823 308° West  Level Estimated
10:28AM 66.2719 -1.7309 308° West  Level Estimated
10:29AM 66.3483 -1.9810 307° West  Level Estimated
10:30AM 66.4242 -2.2326 307° West  Level Estimated
10:31AM 66.4997 -2.4857 307° West  Level Estimated
10:32AM 66.5749 -2.7404 307° West  Level Estimated
10:33AM 66.6496 -2.9966 306° West  Level Estimated
10:34AM 66.7239 -3.2543 306° West  Level Estimated
10:35AM 66.7978 -3.5137 306° West  Level Estimated
10:36AM 66.8712 -3.7745 306° West  Level Estimated
10:37AM 66.9443 -4.0370 305° West  Level Estimated
10:38AM 67.0168 -4.3010 305° West  Level Estimated
10:39AM 67.0890 -4.5666 305° West  Level Estimated
10:40AM 67.1607 -4.8338 305° West  Level Estimated
10:41AM 67.2319 -5.1025 304° West  Level Estimated
10:42AM 67.3027 -5.3729 304° West  Level Estimated
10:43AM 67.3731 -5.6448 304° West  Level Estimated
10:44AM 67.4429 -5.9184 304° West  Level Estimated
10:45AM 67.5124 -6.1935 303° West  Level Estimated
10:46AM 67.5813 -6.4703 303° West  Level Estimated
10:47AM 67.6498 -6.7487 303° West  Level Estimated
10:48AM 67.7178 -7.0287 303° West  Level Estimated
10:49AM 67.7853 -7.3103 302° West  Level Estimated
10:50AM 67.8523 -7.5935 302° West  Level Estimated
10:51AM 67.9188 -7.8784 302° West  Level Estimated
10:52AM 67.9848 -8.1649 302° West  Level Estimated
10:53AM 68.0504 -8.4530 301° West  Level Estimated
10:54AM 68.1154 -8.7428 301° West  Level Estimated
10:55AM 68.1799 -9.0342 301° West  Level Estimated
10:56AM 68.2439 -9.3272 301° West  Level Estimated
10:57AM 68.3074 -9.6219 300° West  Level Estimated
10:58AM 68.3704 -9.9182 300° West  Level Estimated
10:59AM 68.4328 -10.2162 300° West  Level Estimated
11:00AM 68.4947 -10.5158 300° West  Level Estimated
11:01AM 68.5561 -10.8170 299° West  Level Estimated
11:02AM 68.6169 -11.1199 299° West  Level Estimated
11:03AM 68.6771 -11.4244 299° West  Level Estimated
11:04AM 68.7369 -11.7305 298° West  Level Estimated
11:05AM 68.7960 -12.0383 298° West  Level Estimated
11:06AM 68.8546 -12.3477 298° West  Level Estimated
11:07AM 68.9127 -12.6588 298° West  Level Estimated
11:08AM 68.9702 -12.9715 297° West  Level Estimated
11:09AM 69.0270 -13.2858 297° West  Level Estimated
11:10AM 69.0834 -13.6017 297° West  Level Estimated
11:11AM 69.1391 -13.9193 296° West  Level Estimated
11:12AM 69.1943 -14.2385 296° West  Level Estimated
11:13AM 69.2488 -14.5593 296° West  Level Estimated
11:14AM 69.3027 -14.8817 295° West  Level Estimated
11:15AM 69.3561 -15.2057 295° West  Level Estimated
11:16AM 69.4088 -15.5312 295° West  Level Estimated
11:17AM 69.4610 -15.8584 295° West  Level Estimated
11:18AM 69.5125 -16.1872 294° West  Level Estimated
11:19AM 69.5634 -16.5175 294° West  Level Estimated
11:20AM 69.6136 -16.8494 294° West  Level Estimated
11:21AM 69.6633 -17.1829 293° West  Level Estimated
11:22AM 69.7123 -17.5180 293° West  Level Estimated
11:23AM 69.7606 -17.8545 293° West  Level Estimated
11:24AM 69.8084 -18.1926 292° West  Level Estimated
11:25AM 69.8554 -18.5322 292° West  Level Estimated
11:26AM 69.9018 -18.8734 292° West  Level Estimated
11:27AM 69.9476 -19.2160 291° West  Level Estimated
11:28AM 69.9927 -19.5602 291° West  Level Estimated
11:29AM 70.0371 -19.9058 291° West  Level Estimated
11:30AM 70.0808 -20.2529 290° West  Level Estimated
11:31AM 70.1239 -20.6014 290° West  Level Estimated
11:32AM 70.1663 -20.9514 290° West  Level Estimated
11:33AM 70.2080 -21.3028 289° West  Level Estimated
11:34AM 70.2491 -21.6556 289° West  Level Estimated
11:35AM 70.2894 -22.0098 289° West  Level Estimated
11:36AM 70.3290 -22.3654 288° West  Level Estimated
11:37AM 70.3680 -22.7224 288° West  Level Estimated
11:38AM 70.4062 -23.0807 288° West  Level Estimated
11:39AM 70.4437 -23.4404 287° West  Level Estimated
11:40AM 70.4805 -23.8014 287° West  Level Estimated
11:41AM 70.5165 -24.1636 287° West  Level Estimated
11:42AM 70.5519 -24.5272 286° West  Level Estimated
11:43AM 70.5865 -24.8920 286° West  Level Estimated
11:44AM 70.6204 -25.2580 286° West  Level Estimated
11:45AM 70.6536 -25.6253 285° West  Level Estimated
11:46AM 70.6860 -25.9937 285° West  Level Estimated
11:47AM 70.7177 -26.3634 285° West  Level Estimated
11:48AM 70.7486 -26.7342 284° West  Level Estimated
11:49AM 70.7788 -27.1061 284° West  Level Estimated
11:50AM 70.8083 -27.4791 284° West  Level Estimated
11:51AM 70.8369 -27.8533 283° West  Level Estimated
11:52AM 70.8649 -28.2285 283° West  Level Estimated
11:53AM 70.8920 -28.6047 283° West  Level Estimated
11:54AM 70.9184 -28.9820 282° West  Level Estimated
11:55AM 70.9440 -29.3602 282° West  Level Estimated
11:56AM 70.9689 -29.7394 282° West  Level Estimated
11:57AM 70.9929 -30.1196 281° West  Level Estimated
11:58AM 71.0162 -30.5006 281° West  Level Estimated
11:59AM 71.0387 -30.8826 280° West  Level Estimated
12:00PM 71.0605 -31.2654 280° West  Level Estimated
12:01PM 71.0814 -31.6490 280° West  Level Estimated
12:02PM 71.1015 -32.0335 279° West  Level Estimated
12:03PM 71.1209 -32.4187 279° West  Level Estimated
12:04PM 71.1395 -32.8046 279° West  Level Estimated
12:05PM 71.1572 -33.1913 278° West  Level Estimated
12:06PM 71.1742 -33.5787 278° West  Level Estimated
12:07PM 71.1904 -33.9667 278° West  Level Estimated
12:08PM 71.2057 -34.3554 277° West  Level Estimated
12:09PM 71.2203 -34.7446 277° West  Level Estimated
12:10PM 71.2340 -35.1344 276° West  Level Estimated
12:11PM 71.2470 -35.5248 276° West  Level Estimated
12:12PM 71.2591 -35.9156 276° West  Level Estimated
12:13PM 71.2704 -36.3070 275° West  Level Estimated
12:14PM 71.2810 -36.6987 275° West  Level Estimated
12:15PM 71.2906 -37.0909 275° West  Level Estimated
12:16PM 71.2995 -37.4835 274° West  Level Estimated
12:17PM 71.3076 -37.8764 274° West  Level Estimated
12:18PM 71.3148 -38.2696 273° West  Level Estimated
12:19PM 71.3212 -38.6630 273° West  Level Estimated
12:20PM 71.3268 -39.0568 273° West  Level Estimated
12:21PM 71.3316 -39.4507 272° West  Level Estimated
12:22PM 71.3356 -39.8448 272° West  Level Estimated
12:23PM 71.3387 -40.2391 272° West  Level Estimated
12:24PM 71.3410 -40.6334 271° West  Level Estimated
12:25PM 71.3425 -41.0279 271° West  Level Estimated
12:26PM 71.3431 -41.4224 270° West  Level Estimated
12:27PM 71.3430 -41.8169 270° West  Level Estimated
12:28PM 71.3420 -42.2114 270° West  Level Estimated
12:29PM 71.3402 -42.6058 269° West  Level Estimated
12:30PM 71.3376 -43.0001 269° West  Level Estimated
12:31PM 71.3341 -43.3943 269° West  Level Estimated
12:32PM 71.3298 -43.7884 268° West  Level Estimated
12:33PM 71.3248 -44.1822 268° West  Level Estimated
12:34PM 71.3188 -44.5759 267° West  Level Estimated
12:35PM 71.3121 -44.9692 267° West  Level Estimated
12:36PM 71.3046 -45.3623 267° West  Level Estimated
12:37PM 71.2962 -45.7551 266° West  Level Estimated
12:38PM 71.2870 -46.1475 266° West  Level Estimated
12:39PM 71.2770 -46.5395 266° West  Level Estimated
12:40PM 71.2662 -46.9311 265° West  Level Estimated
12:41PM 71.2545 -47.3223 265° West  Level Estimated
12:42PM 71.2421 -47.7129 265° West  Level Estimated
12:43PM 71.2288 -48.1031 264° West  Level Estimated
12:44PM 71.2148 -48.4927 264° West  Level Estimated
12:45PM 71.1999 -48.8817 263° West  Level Estimated
12:46PM 71.1842 -49.2701 263° West  Level Estimated
12:47PM 71.1677 -49.6579 263° West  Level Estimated
12:48PM 71.1505 -50.0450 262° West  Level Estimated
12:49PM 71.1324 -50.4314 262° West  Level Estimated
12:50PM 71.1135 -50.8171 262° West  Level Estimated
12:51PM 71.0938 -51.2020 261° West  Level Estimated
12:52PM 71.0734 -51.5862 261° West  Level Estimated
12:53PM 71.0521 -51.9695 260° West  Level Estimated
12:54PM 71.0301 -52.3520 260° West  Level Estimated
12:55PM 71.0073 -52.7336 260° West  Level Estimated
12:56PM 70.9837 -53.1143 259° West  Level Estimated
12:57PM 70.9593 -53.4941 259° West  Level Estimated
12:58PM 70.9342 -53.8729 259° West  Level Estimated
12:59PM 70.9083 -54.2508 258° West  Level Estimated
01:00PM 70.8816 -54.6276 258° West  Level Estimated
01:01PM 70.8541 -55.0035 258° West  Level Estimated
01:02PM 70.8259 -55.3783 257° West  Level Estimated
01:03PM 70.7970 -55.7520 257° West  Level Estimated
01:04PM 70.7672 -56.1246 257° West  Level Estimated
01:05PM 70.7367 -56.4961 256° West  Level Estimated
01:06PM 70.7055 -56.8664 256° West  Level Estimated
01:07PM 70.6736 -57.2356 256° West  Level Estimated
01:08PM 70.6408 -57.6036 255° West  Level Estimated
01:09PM 70.6074 -57.9704 255° West  Level Estimated
01:10PM 70.5732 -58.3360 254° West  Level Estimated
01:11PM 70.5383 -58.7003 254° West  Level Estimated
01:12PM 70.5027 -59.0633 254° West  Level Estimated
01:13PM 70.4663 -59.4251 253° West  Level Estimated
01:14PM 70.4292 -59.7855 253° West  Level Estimated
01:15PM 70.3914 -60.1447 253° West  Level Estimated
01:16PM 70.3530 -60.5025 252° West  Level Estimated
01:17PM 70.3138 -60.8589 252° West  Level Estimated
01:18PM 70.2739 -61.2140 252° West  Level Estimated
01:19PM 70.2333 -61.5677 251° West  Level Estimated
01:20PM 70.1920 -61.9200 251° West  Level Estimated
01:21PM 70.1500 -62.2708 251° West  Level Estimated
01:22PM 70.1073 -62.6202 250° West  Level Estimated
01:23PM 70.0640 -62.9682 250° West  Level Estimated
01:24PM 70.0200 -63.3147 250° West  Level Estimated
01:25PM 69.9753 -63.6598 249° West  Level Estimated
01:26PM 69.9299 -64.0033 249° West  Level Estimated
01:27PM 69.8839 -64.3454 249° West  Level Estimated
01:28PM 69.8373 -64.6860 248° West  Level Estimated
01:29PM 69.7899 -65.0250 248° West  Level Estimated
01:30PM 69.7420 -65.3625 248° West  Level Estimated
01:31PM 69.6938 -65.6956 248° West  Level Estimated
01:32PM 69.6450 -66.0272 247° West  Level Estimated
01:33PM 69.5955 -66.3572 247° West  Level Estimated
01:34PM 69.5455 -66.6857 247° West  Level Estimated
01:35PM 69.4948 -67.0126 246° West  Level Estimated
01:36PM 69.4435 -67.3380 246° West  Level Estimated
01:37PM 69.3917 -67.6618 246° West  Level Estimated
01:38PM 69.3392 -67.9841 245° Southwest  Level Estimated
01:39PM 69.2861 -68.3048 245° Southwest  Level Estimated
01:40PM 69.2324 -68.6239 245° Southwest  Level Estimated
01:41PM 69.1782 -68.9414 244° Southwest  Level Estimated
01:42PM 69.1233 -69.2574 244° Southwest  Level Estimated
01:43PM 69.0679 -69.5717 244° Southwest  Level Estimated
01:44PM 69.0119 -69.8845 244° Southwest  Level Estimated
01:45PM 68.9554 -70.1957 243° Southwest  Level Estimated
01:46PM 68.8983 -70.5052 243° Southwest  Level Estimated
01:47PM 68.8406 -70.8132 243° Southwest  Level Estimated
01:48PM 68.7824 -71.1196 242° Southwest  Level Estimated
01:49PM 68.7236 -71.4243 242° Southwest  Level Estimated
01:50PM 68.6643 -71.7275 242° Southwest  Level Estimated
01:51PM 68.6044 -72.0290 242° Southwest  Level Estimated
01:52PM 68.5440 -72.3289 241° Southwest  Level Estimated
01:53PM 68.4830 -72.6272 241° Southwest  Level Estimated
01:54PM 68.4216 -72.9239 241° Southwest  Level Estimated
01:55PM 68.3596 -73.2190 240° Southwest  Level Estimated
01:56PM 68.2971 -73.5125 240° Southwest  Level Estimated
01:57PM 68.2341 -73.8044 240° Southwest  Level Estimated
01:58PM 68.1706 -74.0946 240° Southwest  Level Estimated
01:59PM 68.1065 -74.3832 239° Southwest  Level Estimated
02:00PM 68.0420 -74.6703 239° Southwest  Level Estimated
02:01PM 67.9770 -74.9557 239° Southwest  Level Estimated
02:02PM 67.9102 -75.2449 239° Southwest  Level Estimated
02:03PM 67.8430 -75.5324 238° Southwest  Level Estimated
02:04PM 67.7752 -75.8182 238° Southwest  Level Estimated
02:05PM 67.7069 -76.1024 238° Southwest  Level Estimated
02:06PM 67.6382 -76.3849 237° Southwest  Level Estimated
02:07PM 67.5690 -76.6658 237° Southwest  Level Estimated
02:08PM 67.4992 -76.9451 237° Southwest  Level Estimated
02:09PM 67.4290 -77.2226 237° Southwest  Level Estimated
02:10PM 67.3584 -77.4986 236° Southwest  Level Estimated
02:11PM 67.2872 -77.7729 236° Southwest  Level Estimated
02:12PM 67.2156 -78.0456 236° Southwest  Level Estimated
02:13PM 67.1435 -78.3167 236° Southwest  Level Estimated
02:14PM 67.0710 -78.5861 235° Southwest  Level Estimated
02:15PM 66.9980 -78.8540 235° Southwest  Level Estimated
02:16PM 66.9246 -79.1202 235° Southwest  Level Estimated
02:17PM 66.8508 -79.3848 235° Southwest  Level Estimated
02:18PM 66.7765 -79.6479 234° Southwest  Level Estimated
02:19PM 66.7017 -79.9093 234° Southwest  Level Estimated
02:20PM 66.6265 -80.1692 234° Southwest  Level Estimated
02:21PM 66.5509 -80.4275 234° Southwest  Level Estimated
02:22PM 66.4749 -80.6842 234° Southwest  Level Estimated
02:23PM 66.3985 -80.9393 233° Southwest  Level Estimated
02:24PM 66.3216 -81.1929 233° Southwest  Level Estimated
02:25PM 66.2444 -81.4450 233° Southwest  Level Estimated
02:26PM 66.1667 -81.6955 233° Southwest  Level Estimated
02:27PM 66.0886 -81.9444 232° Southwest  Level Estimated
02:28PM 66.0102 -82.1919 232° Southwest  Level Estimated
02:29PM 65.9313 -82.4378 232° Southwest  Level Estimated
02:30PM 65.8520 -82.6822 232° Southwest  Level Estimated
02:31PM 65.7724 -82.9251 231° Southwest  Level Estimated
02:32PM 65.6924 -83.1665 231° Southwest  Level Estimated
02:33PM 65.6120 -83.4064 231° Southwest  Level Estimated
02:34PM 65.5312 -83.6448 231° Southwest  Level Estimated
02:35PM 65.4500 -83.8817 231° Southwest  Level Estimated
02:36PM 65.3685 -84.1172 230° Southwest  Level Estimated
02:37PM 65.2866 -84.3512 230° Southwest  Level Estimated
02:38PM 65.2044 -84.5837 230° Southwest  Level Estimated
02:39PM 65.1218 -84.8149 230° Southwest  Level Estimated
02:40PM 65.0388 -85.0445 230° Southwest  Level Estimated
02:41PM 64.9555 -85.2728 229° Southwest  Level Estimated
02:42PM 64.8719 -85.4996 229° Southwest  Level Estimated
02:43PM 64.7879 -85.7250 229° Southwest  Level Estimated
02:44PM 64.7035 -85.9491 229° Southwest  Level Estimated
02:45PM 64.6189 -86.1717 228° Southwest  Level Estimated
02:46PM 64.5339 -86.3929 228° Southwest  Level Estimated
02:47PM 64.4485 -86.6128 228° Southwest  Level Estimated
02:48PM 64.3629 -86.8313 228° Southwest  Level Estimated
02:49PM 64.2769 -87.0484 228° Southwest  Level Estimated
02:50PM 64.1906 -87.2642 227° Southwest  Level Estimated
02:51PM 64.1040 -87.4786 227° Southwest  Level Estimated
02:52PM 64.0171 -87.6917 227° Southwest  Level Estimated
02:53PM 63.9298 -87.9035 227° Southwest  Level Estimated
02:54PM 63.8423 -88.1140 227° Southwest  Level Estimated
02:55PM 63.7544 -88.3231 227° Southwest  Level Estimated
02:56PM 63.6663 -88.5310 226° Southwest  Level Estimated
02:57PM 63.5778 -88.7376 226° Southwest  Level Estimated
02:58PM 63.4891 -88.9429 226° Southwest  Level Estimated
02:59PM 63.4000 -89.1469 226° Southwest  Level Estimated
03:00PM 63.3107 -89.3496 226° Southwest  Level Estimated
03:01PM 63.2211 -89.5511 225° Southwest  Level Estimated
03:02PM 63.1312 -89.7514 225° Southwest  Level Estimated
03:03PM 63.0410 -89.9504 225° Southwest  Level Estimated
03:04PM 62.9505 -90.1481 225° Southwest  Level Estimated
03:05PM 62.8598 -90.3447 225° Southwest  Level Estimated
03:06PM 62.7688 -90.5401 225° Southwest  Level Estimated
03:07PM 62.6775 -90.7342 224° Southwest  Level Estimated
03:08PM 62.5860 -90.9271 224° Southwest  Level Estimated
03:09PM 62.4942 -91.1189 224° Southwest  Level Estimated
03:10PM 62.4021 -91.3095 224° Southwest  Level Estimated
03:11PM 62.3098 -91.4989 224° Southwest  Level Estimated
03:12PM 62.2172 -91.6871 224° Southwest  Level Estimated
03:13PM 62.1244 -91.8743 223° Southwest  Level Estimated
03:14PM 62.0313 -92.0602 223° Southwest  Level Estimated
03:15PM 61.9380 -92.2450 223° Southwest  Level Estimated
03:16PM 61.8444 -92.4287 223° Southwest  Level Estimated
03:17PM 61.7506 -92.6113 223° Southwest  Level Estimated
03:18PM 61.6565 -92.7927 223° Southwest  Level Estimated
03:19PM 61.5622 -92.9731 222° Southwest  Level Estimated
03:20PM 61.4677 -93.1524 222° Southwest  Level Estimated
03:21PM 61.3729 -93.3305 222° Southwest  Level Estimated
03:22PM 61.2779 -93.5076 222° Southwest  Level Estimated
03:23PM 61.1827 -93.6837 222° Southwest  Level Estimated
03:24PM 61.0872 -93.8586 222° Southwest  Level Estimated
03:25PM 60.9916 -94.0325 221° Southwest  Level Estimated
03:26PM 60.8956 -94.2054 221° Southwest  Level Estimated
03:27PM 60.7995 -94.3773 221° Southwest  Level Estimated
03:28PM 60.7032 -94.5480 221° Southwest  Level Estimated
03:29PM 60.6066 -94.7178 221° Southwest  Level Estimated
03:30PM 60.5098 -94.8866 221° Southwest  Level Estimated
03:31PM 60.4129 -95.0544 221° Southwest  Level Estimated
03:32PM 60.3157 -95.2211 220° Southwest  Level Estimated
03:33PM 60.2183 -95.3869 220° Southwest  Level Estimated
03:34PM 60.1207 -95.5517 220° Southwest  Level Estimated
03:35PM 60.0228 -95.7155 220° Southwest  Level Estimated
03:36PM 59.9248 -95.8783 220° Southwest  Level Estimated
03:37PM 59.8266 -96.0402 220° Southwest  Level Estimated
03:38PM 59.7282 -96.2011 220° Southwest  Level Estimated
03:38PM 62.5833 -105.2500 219° Southwest 510 587 36,000  Level Edmonton Center
03:39PM 59.6296 -96.3611 219° Southwest  Level Estimated
03:39PM 62.4667 -105.4000 211° Southwest 470 541 36,000  Level Edmonton Center
03:40PM 59.5308 -96.5202 219° Southwest  Level Estimated
03:40PM 62.3500 -105.5000 202° Southwest 460 529 36,000  Level Edmonton Center
03:41PM 59.4318 -96.6783 219° Southwest  Level Estimated
03:41PM 62.2500 -105.6500 215° Southwest 460 529 36,000  Level Edmonton Center
03:42PM 59.3326 -96.8355 219° Southwest  Level Estimated
03:42PM 62.1333 -105.7833 208° Southwest 460 529 36,000  Level Edmonton Center
03:43PM 59.2333 -96.9918 219° Southwest  Level Estimated
03:43PM 62.0167 -105.9000 205° Southwest 460 529 36,000  Level Edmonton Center
03:44PM 61.9000 -106.0333 208° Southwest 460 529 36,000  Level Edmonton Center
03:45PM 61.7833 -106.1833 211° Southwest 460 529 36,000  Level Edmonton Center
03:46PM 61.6667 -106.3167 208° Southwest 460 529 36,000  Level Edmonton Center
03:47PM 61.5500 -106.4500 209° Southwest 460 529 36,000  Level Edmonton Center
03:48PM 61.4500 -106.5500 206° Southwest 460 529 36,000  Level Edmonton Center
03:49PM 61.3167 -106.6833 206° Southwest 460 529 36,000  Level Edmonton Center
03:50PM 61.2167 -106.8167 213° Southwest 460 529 36,000  Level Edmonton Center
03:51PM 61.1000 -106.9167 203° Southwest 460 529 36,000  Level Edmonton Center
03:52PM 60.9833 -107.0500 209° Southwest 460 529 36,000  Level Edmonton Center
03:53PM 60.8667 -107.1833 209° Southwest 460 529 36,000  Level Edmonton Center
03:54PM 60.7500 -107.3167 209° Southwest 460 529 36,000  Level Edmonton Center
03:55PM 60.6333 -107.4167 203° Southwest 460 529 36,000  Level Edmonton Center
03:56PM 60.5333 -107.5500 213° Southwest 460 529 36,000  Level Edmonton Center
03:57PM 60.4000 -107.6667 203° Southwest 460 529 36,000  Level Edmonton Center
03:58PM 60.2833 -107.7667 203° Southwest 460 529 36,000  Level Edmonton Center
03:59PM 60.1667 -107.9333 215° Southwest 460 529 36,000  Level Edmonton Center
04:00PM 60.0500 -108.0167 200° South 460 529 36,000  Level Edmonton Center
04:01PM 59.9333 -108.1500 210° Southwest 460 529 36,000  Level Edmonton Center
04:02PM 59.8167 -108.2667 207° Southwest 470 541 36,000  Level Edmonton Center
04:03PM 59.7000 -108.3500 200° South 460 529 36,000  Level Edmonton Center
04:04PM 59.5833 -108.4833 210° Southwest 470 541 36,000  Level Edmonton Center
04:05PM 59.4667 -108.6000 207° Southwest 460 529 36,000  Level Edmonton Center
04:06PM 59.3500 -108.7167 207° Southwest 470 541 36,000  Level Edmonton Center
04:07PM 59.2167 -108.8333 204° Southwest 460 529 36,000  Level Edmonton Center
04:08PM 59.1167 -108.9333 207° Southwest 460 529 36,000  Level Edmonton Center
04:09PM 59.0000 -109.0500 207° Southwest 460 529 36,000  Level Edmonton Center
04:10PM 58.8833 -109.1667 207° Southwest 460 529 36,000  Level Edmonton Center
04:11PM 58.7500 -109.2833 204° Southwest 460 529 36,000  Level Edmonton Center
04:12PM 58.6500 -109.4000 211° Southwest 460 529 36,000  Level Edmonton Center
04:13PM 58.5167 -109.4833 198° South 460 529 36,000  Level Edmonton Center
04:14PM 58.4000 -109.6000 208° Southwest 460 529 36,000  Level Edmonton Center
04:15PM 58.3000 -109.7000 208° Southwest 460 529 36,000  Level Edmonton Center
04:16PM 58.1667 -109.8167 205° Southwest 460 529 36,000  Level Edmonton Center
04:17PM 58.0500 -109.9333 208° Southwest 460 529 36,000  Level Edmonton Center
04:18PM 57.9333 -110.0167 201° Southwest 460 529 36,000  Level Edmonton Center
04:19PM 57.8333 -110.1333 212° Southwest 460 529 36,000  Level Edmonton Center
04:20PM 57.7167 -110.2333 205° Southwest 460 529 36,000  Level Edmonton Center
04:21PM 57.5833 -110.3167 199° South 460 529 36,000  Level Edmonton Center
04:22PM 57.4667 -110.4167 205° Southwest 460 529 36,000  Level Edmonton Center
04:23PM 57.3500 -110.5333 208° Southwest 460 529 36,000  Level Edmonton Center
04:24PM 57.2333 -110.6333 205° Southwest 460 529 36,000  Level Edmonton Center
04:25PM 57.1167 -110.7500 209° Southwest 460 529 36,000  Level Edmonton Center
04:26PM 56.9833 -110.8500 202° Southwest 460 529 36,000  Level Edmonton Center
04:27PM 56.8833 -110.9333 204° Southwest 460 529 36,000  Level Edmonton Center
04:28PM 56.7333 -111.0333 200° South 470 541 36,000  Level Edmonton Center
04:29PM 56.6333 -111.1333 209° Southwest 470 541 36,000  Level Edmonton Center
04:30PM 56.5000 -111.2333 202° Southwest 470 541 36,000  Level Edmonton Center
04:31PM 56.3833 -111.3333 205° Southwest 470 541 36,000  Level Edmonton Center
04:32PM 56.2833 -111.4500 213° Southwest 460 529 36,000  Level Edmonton Center
04:33PM 56.1500 -111.5500 203° Southwest 470 541 36,000  Level Edmonton Center
04:34PM 56.0333 -111.6500 206° Southwest 470 541 36,000  Level Edmonton Center
04:35PM 55.9167 -111.7500 206° Southwest 470 541 36,000  Level Edmonton Center
04:36PM 55.8000 -111.8500 206° Southwest 470 541 36,000  Level Edmonton Center
04:37PM 55.6667 -111.9500 203° Southwest 470 541 36,000  Level Edmonton Center
04:38PM 55.5667 -112.0500 209° Southwest 470 541 36,000  Level Edmonton Center
04:39PM 55.4333 -112.1333 200° South 470 541 36,000  Level Edmonton Center
04:40PM 55.3167 -112.2333 206° Southwest 470 541 36,000  Level Edmonton Center
04:41PM 55.1833 -112.3333 203° Southwest 470 541 36,000  Level Edmonton Center
04:42PM 55.0833 -112.4333 210° Southwest 470 541 36,000  Level Edmonton Center
04:43PM 54.9500 -112.5500 207° Southwest 470 541 36,000  Level Edmonton Center
04:44PM 54.8333 -112.6500 206° Southwest 470 541 36,000  Level Edmonton Center
04:45PM 54.7000 -112.7167 196° South 470 541 36,000  Level Edmonton Center
04:46PM 54.6000 -112.8167 210° Southwest 480 552 36,000  Level Edmonton Center
04:47PM 54.4667 -112.9333 207° Southwest 480 552 36,000  Level Edmonton Center
04:52PM 53.7730 -113.4370 207° Southwest 496 571 36,000  Level FlightAware
04:53PM 53.6760 -113.5090 204° Southwest 491 565 36,000  Level FlightAware
04:54PM 53.5840 -113.5770 204° Southwest 490 564 36,000  Level FlightAware
04:54PM 53.5150 -113.6270 203° Southwest 491 565 36,000  Level FlightAware
04:55PM 53.4340 -113.6850 203° Southwest 492 566 36,000  Level FlightAware
04:56PM 53.3330 -113.7600 204° Southwest 36,000  Level FlightAware
04:57PM 53.2480 -113.8220 204° Southwest 492 566 36,000  Level FlightAware
04:57PM 53.1760 -113.8740 203° Southwest 489 563 36,000  Level FlightAware
04:58PM 53.0700 -113.9440 202° Southwest 483 556 36,000  Level FlightAware
04:59PM 52.9850 -114.0000 202° Southwest 482 555 36,000  Level FlightAware
04:59PM 52.8900 -114.0620 201° Southwest 483 556 36,000  Level FlightAware
05:00PM 52.8050 -114.1180 202° Southwest 483 556 36,000  Level FlightAware
05:01PM 52.7120 -114.1790 202° Southwest 488 562 36,000  Level FlightAware
05:02PM 52.6280 -114.2330 201° Southwest 488 562 36,000  Level FlightAware
05:02PM 52.5440 -114.2880 202° Southwest 487 560 36,000  Level FlightAware
05:03PM 52.4490 -114.3490 201° Southwest 486 559 36,000  Level FlightAware
05:04PM 52.3630 -114.4040 201° Southwest 486 559 36,000  Level FlightAware
05:04PM 52.2810 -114.4570 202° Southwest 483 556 36,000  Level FlightAware
05:05PM 52.1890 -114.5150 201° Southwest 483 556 36,000  Level FlightAware
05:06PM 52.1050 -114.5680 201° Southwest 480 552 36,000  Level FlightAware
05:06PM 52.0130 -114.6270 202° Southwest 481 554 36,000  Level FlightAware
05:07PM 51.9280 -114.6800 201° Southwest 481 554 36,000  Level FlightAware
05:08PM 51.8360 -114.7380 201° Southwest 482 555 36,000  Level FlightAware
05:09PM 51.7510 -114.7900 201° Southwest 483 556 36,000  Level FlightAware
05:09PM 51.6690 -114.8410 201° Southwest 483 556 36,000  Level FlightAware
05:10PM 51.5760 -114.8980 201° Southwest 484 557 36,000  Level FlightAware
05:11PM 51.4910 -114.9510 201° Southwest 485 558 36,000  Level FlightAware
05:11PM 51.3980 -115.0080 201° Southwest 484 557 36,000  Level FlightAware
05:12PM 51.3130 -115.0600 201° Southwest 484 557 36,000  Level FlightAware
05:13PM 51.2210 -115.1150 201° Southwest 483 556 36,000  Level FlightAware
05:13PM 51.1350 -115.1670 201° Southwest 484 557 36,000  Level FlightAware
05:14PM 51.0530 -115.2170 201° Southwest 480 552 36,000  Level FlightAware
05:15PM 50.9590 -115.2730 201° Southwest 482 555 36,000  Level FlightAware
05:16PM 50.8730 -115.3250 201° Southwest 481 554 36,000  Level FlightAware
05:16PM 50.7780 -115.3810 200° South 483 556 36,000  Level FlightAware
05:17PM 50.7040 -115.4250 201° Southwest 480 552 36,000  Level FlightAware
05:18PM 50.5190 -115.5350 201° Southwest 483 556 36,000  Level FlightAware
05:20PM 50.3370 -115.6400 200° South 479 551 36,000  Level FlightAware
05:20PM 50.2570 -115.6870 201° Southwest 480 552 36,000  Level FlightAware
05:21PM 50.1840 -115.7290 200° South 481 554 36,000  Level FlightAware
05:22PM 50.0430 -115.8110 200° South 477 549 36,000  Level FlightAware
05:23PM 49.9720 -115.8510 200° South 484 557 36,000  Level FlightAware
05:23PM 49.8830 -115.9020 200° South 477 549 36,000  Level FlightAware
05:24PM 49.7790 -115.9620 200° South 477 549 36,000  Level FlightAware
05:25PM 49.6840 -116.0150 200° South 477 549 36,000  Level FlightAware
05:26PM 49.6130 -116.0560 201° Southwest 482 555 36,000  Level FlightAware
05:26PM 49.5200 -116.1160 203° Southwest 468 539 36,000  Level FlightAware
05:27PM 49.4330 -116.1850 207° Southwest 472 543 36,000  Level FlightAware
05:28PM 49.3260 -116.2720 208° Southwest 473 544 36,000  Level FlightAware
05:29PM 49.2220 -116.3550 208° Southwest 476 548 36,000  Level FlightAware
05:30PM 49.1400 -116.4200 207° Southwest 470 541 36,000  Level FlightAware
05:30PM 49.0760 -116.4700 207° Southwest 470 541 36,000  Level FlightAware
05:31PM 49.0100 -116.5210 207° Southwest 470 541 36,000  Level FlightAware
05:32PM 48.9280 -116.5850 207° Southwest 470 541 36,000  Level FlightAware
05:32PM 48.8620 -116.6360 207° Southwest 470 541 36,000  Level FlightAware
05:33PM 48.7960 -116.6870 207° Southwest 470 541 36,000  Level FlightAware
05:34PM 48.7300 -116.7380 207° Southwest 470 541 36,000  Level FlightAware
05:34PM 48.6640 -116.7890 207° Southwest 470 541 36,000  Level FlightAware
05:35PM 48.5820 -116.8530 207° Southwest 470 541 36,000  Level FlightAware
05:36PM 48.5160 -116.9030 207° Southwest 470 541 36,000  Level FlightAware
05:37PM 48.4500 -116.9540 207° Southwest 470 541 36,000  Level FlightAware
05:37PM 48.3840 -117.0040 207° Southwest 470 541 36,000  Level FlightAware
05:38PM 48.3180 -117.0550 207° Southwest 470 541 36,000  Level FlightAware
05:39PM 48.2360 -117.1180 207° Southwest 470 541 36,000  Level FlightAware
05:39PM 48.1700 -117.1680 207° Southwest 470 541 36,000  Level FlightAware
05:40PM 47.9250 -117.3581 207° Southwest 484 557 36,000  Level Seattle Center
05:41PM 47.8056 -117.4481 207° Southwest 485 558 36,000  Level Seattle Center
05:42PM 47.6861 -117.5375 207° Southwest 487 560 36,000  Level Seattle Center
05:43PM 47.5372 -117.6336 204° Southwest 493 567 36,000  Level Seattle Center
05:44PM 47.4017 -117.6739 191° South 502 578 36,000  Level Seattle Center
05:45PM 47.2650 -117.7142 191° South 505 581 36,000  Level Seattle Center
05:46PM 47.1281 -117.7544 191° South 505 581 36,000 60 Level Seattle Center
05:47PM 46.9906 -117.7936 191° South 507 583 36,200 480 Climbing Seattle Center
05:48PM 46.8531 -117.8314 191° South 505 581 37,000 360 Climbing Seattle Center
05:49PM 46.7156 -117.8703 191° South 505 581 37,000  Level Seattle Center
05:50PM 46.5781 -117.9097 191° South 505 581 37,000  Level Seattle Center
05:51PM 46.4394 -117.9489 191° South 508 585 37,000  Level Seattle Center
05:52PM 46.3006 -117.9872 191° South 511 588 37,000  Level Seattle Center
05:53PM 46.1611 -118.0253 191° South 511 588 37,000  Level Seattle Center
05:54PM 45.9939 -118.0711 191° South 512 589 37,000  Level Seattle Center
05:55PM 45.8497 -118.1122 191° South 514 592 37,000  Level Seattle Center
05:56PM 45.7139 -118.1475 190° South 514 592 37,000  Level Seattle Center
05:57PM 45.5722 -118.1825 190° South 517 595 37,000  Level Seattle Center
05:58PM 45.4222 -118.2247 191° South 518 596 37,000  Level Seattle Center
05:59PM 45.2869 -118.2617 191° South 519 597 37,000  Level Seattle Center
06:00PM 45.1511 -118.2967 190° South 520 598 37,000  Level Seattle Center
06:01PM 45.0600 -118.3228 191° South 521 600 37,000  Level Salt Lake Center
06:02PM 44.9228 -118.3567 190° South 522 601 37,000  Level Salt Lake Center
06:03PM 44.7636 -118.4000 191° South 522 601 37,000  Level Salt Lake Center
06:03PM 44.6950 -118.4161 189° South 521 600 37,000  Level Seattle Center
06:04PM 44.5575 -118.4517 190° South 524 603 37,000  Level Seattle Center
06:05PM 44.4667 -118.4761 191° South 523 602 37,000  Level Salt Lake Center
06:06PM 44.3283 -118.5117 190° South 526 605 37,000  Level Salt Lake Center
06:06PM 44.2589 -118.5286 190° South 527 606 37,000  Level Seattle Center
06:07PM 44.1192 -118.5650 191° South 531 611 37,000  Level Seattle Center
06:08PM 44.0314 -118.5872 190° South 525 604 37,000  Level Salt Lake Center
06:09PM 43.8922 -118.6175 189° South 527 606 37,000  Level Salt Lake Center
06:10PM 43.7314 -118.6456 187° South 524 603 37,000  Level Salt Lake Center
06:11PM 43.5928 -118.6664 186° South 524 603 37,000  Level Salt Lake Center
06:12PM 43.4292 -118.6881 185° South 527 606 37,000  Level Salt Lake Center
06:14PM 43.1322 -118.7347 187° South 524 603 37,000  Level Salt Lake Center
06:15PM 42.9931 -118.7550 186° South 526 605 37,000  Level Salt Lake Center
06:16PM 42.8289 -118.7794 186° South 529 609 37,000  Level Salt Lake Center
06:17PM 42.6894 -118.8000 186° South 529 609 37,000  Level Salt Lake Center
06:18PM 42.5267 -118.8244 186° South 527 606 37,000  Level Salt Lake Center
06:19PM 42.3794 -118.8450 186° South 526 605 37,000  Level Salt Lake Center
06:20PM 42.2397 -118.8658 186° South 526 605 37,000  Level Salt Lake Center
06:21PM 42.0764 -118.8892 186° South 528 608 37,000  Level Salt Lake Center
06:22PM 41.9361 -118.9097 186° South 530 610 37,000  Level Salt Lake Center
06:23PM 41.7967 -118.9306 186° South 526 605 37,000  Level Salt Lake Center
06:24PM 41.6339 -118.9531 186° South 528 608 37,000  Level Salt Lake Center
06:25PM 41.4956 -118.9719 186° South 525 604 37,000  Level Salt Lake Center
06:26PM 41.3325 -118.9950 186° South 526 605 37,000  Level Salt Lake Center
06:28PM 41.1931 -119.0150 186° South 526 605 37,000  Level Salt Lake Center
06:29PM 41.0331 -119.0378 186° South 522 601 37,000  Level Salt Lake Center
06:30PM 40.8953 -119.0556 186° South 521 600 37,000  Level Salt Lake Center
06:30PM 40.8514 -119.0614 186° South 521 600 37,000  Level Oakland Center
06:31PM 40.6989 -119.0822 186° South 521 600 37,000  Level Oakland Center
06:32PM 40.5558 -119.1000 185° South 519 597 37,000  Level Oakland Center
06:33PM 40.4150 -119.1161 185° South 510 587 37,000  Level Oakland Center
06:34PM 40.2725 -119.1331 185° South 513 590 37,000  Level Oakland Center
06:40PM 39.4650 -119.2280 185° South 497 572 37,000  Level FlightAware
06:40PM 39.3710 -119.2390 185° South 497 572 37,000  Level FlightAware
06:41PM 39.2710 -119.2510 185° South 504 580 37,000  Level FlightAware
06:42PM 39.2280 -119.2560 185° South 504 580 37,000  Level FlightAware
06:43PM 39.0770 -119.2730 185° South 505 581 37,000  Level FlightAware
06:44PM 38.9250 -119.2900 185° South 500 575 37,000  Level FlightAware
06:44PM 38.8290 -119.3010 185° South 500 575 37,000  Level FlightAware
06:45PM 38.6800 -119.3180 185° South 499 574 37,000  Level FlightAware
06:46PM 38.5830 -119.3300 186° South 498 573 37,000  Level FlightAware
06:47PM 38.4760 -119.3420 185° South 498 573 37,000  Level FlightAware
06:47PM 38.3880 -119.3520 185° South 497 572 37,000  Level FlightAware
06:48PM 38.2810 -119.3640 185° South 498 573 37,000  Level FlightAware
06:49PM 38.1900 -119.3740 185° South 495 570 37,000  Level FlightAware
06:49PM 38.1240 -119.3810 185° South 495 570 37,000  Level FlightAware
06:50PM 38.0430 -119.3890 184° South 495 570 37,000  Level FlightAware
06:51PM 37.9480 -119.4010 186° South 499 574 37,000  Level FlightAware
06:51PM 37.8370 -119.4130 185° South 496 571 37,000  Level FlightAware
06:52PM 37.7470 -119.4230 185° South 495 570 37,000  Level FlightAware
06:53PM 37.6420 -119.4350 185° South 494 568 37,000  Level FlightAware
06:53PM 37.5500 -119.4450 185° South 496 571 37,000  Level FlightAware
06:54PM 37.4590 -119.4550 185° South 496 571 37,000  Level FlightAware
06:55PM 37.3530 -119.4670 185° South 495 570 37,000  Level FlightAware
06:55PM 37.2650 -119.4760 185° South 496 571 37,000  Level FlightAware
06:56PM 37.1740 -119.4860 185° South 496 571 37,000  Level FlightAware
06:57PM 37.0700 -119.4980 185° South 496 571 37,000  Level FlightAware
06:58PM 36.9790 -119.5080 185° South 495 570 37,000  Level FlightAware
06:58PM 36.8780 -119.5190 185° South 493 567 37,000  Level FlightAware
06:59PM 36.7850 -119.5290 185° South 493 567 37,000  Level FlightAware
07:00PM 36.6810 -119.5400 185° South 494 568 37,000  Level FlightAware
07:00PM 36.5900 -119.5500 185° South 495 570 37,000  Level FlightAware
07:01PM 36.5000 -119.5590 185° South 494 568 37,000  Level FlightAware
07:02PM 36.3970 -119.5700 185° South 494 568 37,000  Level FlightAware
07:02PM 36.3060 -119.5800 185° South 492 566 37,000  Level FlightAware
07:03PM 36.2050 -119.5910 185° South 491 565 37,000  Level FlightAware
07:04PM 36.1140 -119.6010 185° South 492 566 37,000  Level FlightAware
07:05PM 36.0240 -119.6100 185° South 493 567 37,000  Level FlightAware
07:05PM 35.9210 -119.5880 170° South 498 573 37,000 -240 Level FlightAware
07:06PM 35.8330 -119.5550 163° South 492 566 36,700 -1,020 Descending FlightAware
07:07PM 35.7350 -119.5580 181° South 489 563 35,600 -1,440 Descending FlightAware
07:07PM 35.6430 -119.5710 187° South 489 563 34,700 -1,440 Descending FlightAware
07:08PM 35.5540 -119.5870 188° South 490 564 33,700 -1,500 Descending FlightAware
07:09PM 35.4520 -119.6070 189° South 492 566 32,600 -1,440 Descending FlightAware
07:09PM 35.3620 -119.6230 188° South 494 568 31,700 -1,500 Descending FlightAware
07:10PM 35.2390 -119.6220 180° South 502 578 30,300 -1,260 Descending FlightAware
07:11PM 35.1450 -119.5610 152° Southeast 492 566 29,600 -1,320 Descending FlightAware
07:12PM 35.0690 -119.5050 149° Southeast 478 550 28,500 -1,980 Descending FlightAware
07:13PM 34.9840 -119.4420 149° Southeast 476 548 26,800 -1,740 Descending FlightAware
07:13PM 34.9160 -119.3780 142° Southeast 468 539 26,100 -1,380 Descending FlightAware
07:14PM 34.8480 -119.3110 141° Southeast 460 529 25,000 -1,920 Descending FlightAware
07:15PM 34.7720 -119.2390 142° Southeast 451 519 23,400 -2,220 Descending FlightAware
07:15PM 34.7060 -119.1770 142° Southeast 442 509 21,900 -2,160 Descending FlightAware
07:16PM 34.6350 -119.1130 143° Southeast 434 499 20,400 -2,100 Descending FlightAware
07:17PM 34.5760 -119.0640 146° Southeast 428 493 19,100 -1,020 Descending FlightAware
07:17PM 34.5120 -119.0120 146° Southeast 428 493 19,100 -1,380 Level FlightAware
07:18PM 34.4300 -118.9420 145° Southeast 413 475 16,800 -2,400 Descending FlightAware
07:20PM 34.2320 -118.8350 156° South 356 410 12,400 -1,920 Descending FlightAware
07:21PM 34.1820 -118.8170 163° South 350 403 12,100 -1,200 Descending FlightAware
07:22PM 34.1030 -118.7880 163° South 329 379 10,700 -1,200 Descending FlightAware
07:22PM 34.0510 -118.7580 154° Southeast 301 346 10,300 -660 Descending FlightAware
07:23PM 34.0420 -118.7400 121° Southeast 295 339 10,100 -600 Descending FlightAware
07:23PM 34.0410 -118.7000 92° East 290 334 9,900 -240 Descending FlightAware
07:23PM 34.0490 -118.6470 80° East 293 337 9,900  Level FlightAware
07:24PM 34.0560 -118.6000 80° East 293 337 9,900  Level FlightAware
07:25PM 34.0610 -118.5420 84° East 294 338 9,900  Level FlightAware
07:25PM 34.0650 -118.5000 83° East 294 338 9,900 -2,040 Level FlightAware
07:25PM 34.0550 -118.4580 106° East 291 335 8,200 -2,880 Descending FlightAware
07:26PM 34.0470 -118.4060 101° East 285 328 7,300 -1,740 Descending FlightAware
07:26PM 34.0410 -118.3650 100° East 285 328 6,500 -1,860 Descending FlightAware
07:27PM 34.0340 -118.3140 99° East 270 311 5,600 -1,500 Descending FlightAware
07:27PM 34.0280 -118.2720 100° East 239 275 5,000 -1,140 Descending FlightAware
07:28PM 34.0250 -118.2240 94° East 198 228 4,300 -1,080 Descending FlightAware
07:29PM 34.0120 -118.1860 112° Southeast 186 214 3,500 -1,320 Descending FlightAware
07:30PM 33.9840 -118.2000 203° Southwest 184 212 2,500 -1,200 Descending FlightAware
07:30PM 33.9730 -118.2250 242° Southwest 181 208 2,100 -480 Descending FlightAware
07:30PM 33.9670 -118.2530 256° West 176 203 2,100  Level FlightAware
07:31PM 33.9650 -118.2760 264° West 180 207 2,100 -660 Level FlightAware
07:32PM 33.9610 -118.3170 263° West 158 182 1,400 -600 Descending FlightAware
07:32PM 33.9590 -118.3380 263° West 158 182 1,400 -540 Level FlightAware
07:32PM 33.9500 -118.3500 263° West 136 157 1,000 -780 Descending Southern California TRACON
07:34PM 33.9525 -118.3986 274° West 144 166 200 -720 Descending Los Angeles Center
07:36PM 33.9333 -118.4000 228° Southwest  Level FlightAware Approximate